Time;durP1;ratioP1;P1;durP2;ratioP2;P2;SDS_P1;SDS_P2;PMS_P1;PMS_P2;Temp;Humidity;BMP_temperature;BMP_pressure;BME280_temperature;BME280_humidity;BME280_pressure;Samples;Min_cycle;Max_cycle;Signal;HPM_P1;HPM_P2
2022/05/19 00:00:34;;;;;;;;;;;17.10;99.90;;;;;;6276515;22;19985;-75
2022/05/19 00:02:59;;;;;;;;;;;17.10;99.90;;;;;;6276942;22;19990;-75
2022/05/19 00:05:26;;;;;;;;;;;17.00;99.90;;;;;;6276522;22;19982;-77
2022/05/19 00:07:51;;;;;;;;;;;17.00;99.90;;;;;;6276410;22;20238;-76
2022/05/19 00:10:17;;;;;;;;;;;16.90;99.90;;;;;;6276857;22;19923;-76
2022/05/19 00:12:42;;;;;;;;;;;16.90;99.90;;;;;;6276453;22;19919;-75
2022/05/19 00:15:08;;;;;;;;;;;17.10;99.90;;;;;;6276635;22;19916;-75
2022/05/19 00:17:34;;;;;;;;;;;16.90;99.90;;;;;;6276713;22;19958;-75
2022/05/19 00:19:59;;;;;;;;;;;16.80;99.90;;;;;;6276525;22;19920;-77
2022/05/19 00:22:25;;;;;;;;;;;16.80;99.90;;;;;;6249128;22;19919;-75
2022/05/19 00:24:50;;;;;;;;;;;16.70;99.90;;;;;;6248624;22;19920;-75
2022/05/19 00:27:16;;;;;;;;;;;16.70;99.90;;;;;;6276702;22;19926;-76
2022/05/19 00:29:41;;;;;;;;;;;16.70;99.90;;;;;;6276159;22;19998;-74
2022/05/19 00:32:07;;;;;;;;;;;16.60;99.90;;;;;;6248398;22;19925;-75
2022/05/19 00:34:33;;;;;;;;;;;16.60;99.90;;;;;;6276606;22;19994;-76
2022/05/19 00:36:59;;;;;;;;;;;16.60;99.90;;;;;;6276460;22;19920;-77
2022/05/19 00:39:25;;;;;;;;;;;16.50;99.90;;;;;;6248371;22;19923;-76
2022/05/19 00:42:43;;;;;;;;;;;16.50;99.90;;;;;;6276589;22;19923;-75
2022/05/19 00:44:39;;;;;;;;;;;16.50;99.90;;;;;;6276237;22;20029;-76
2022/05/19 00:47:05;;;;;;;;;;;16.50;99.90;;;;;;6276077;22;19924;-76
2022/05/19 00:49:36;;;;;;;;;;;16.50;99.90;;;;;;6276389;22;19920;-75
2022/05/19 00:52:16;;;;;;;;;;;16.40;99.90;;;;;;6276098;22;19919;-75
2022/05/19 00:54:47;;;;;;;;;;;16.40;99.90;;;;;;6248751;22;19923;-74
2022/05/19 00:57:21;;;;;;;;;;;16.40;99.90;;;;;;6275927;22;19961;-75
2022/05/19 00:59:50;;;;;;;;;;;16.40;99.90;;;;;;6248126;22;19923;-74
2022/05/19 01:02:17;;;;;;;;;;;16.40;99.90;;;;;;6276549;22;20282;-75
2022/05/19 01:04:49;;;;;;;;;;;16.40;99.90;;;;;;6276354;22;19926;-75
2022/05/19 01:07:20;;;;;;;;;;;16.40;99.90;;;;;;6276305;22;19926;-75
2022/05/19 01:09:46;;;;;;;;;;;16.40;99.90;;;;;;6248598;22;20041;-75
2022/05/19 01:12:12;;;;;;;;;;;16.30;99.90;;;;;;6275966;22;19954;-76
2022/05/19 01:14:39;;;;;;;;;;;16.30;99.90;;;;;;6248978;22;20252;-75
2022/05/19 01:17:06;;;;;;;;;;;16.30;99.90;;;;;;6248323;22;19969;-74
2022/05/19 01:19:36;;;;;;;;;;;16.20;99.90;;;;;;6276069;22;19919;-75
2022/05/19 01:22:21;;;;;;;;;;;16.20;99.90;;;;;;6276366;22;19920;-75
2022/05/19 01:25:06;;;;;;;;;;;16.20;99.90;;;;;;6122706;23;19921;-74
2022/05/19 01:27:31;;;;;;;;;;;16.00;99.90;;;;;;6097675;23;19924;-75
2022/05/19 01:29:57;;;;;;;;;;;16.00;99.90;;;;;;6123341;23;20354;-75
2022/05/19 01:32:27;;;;;;;;;;;15.90;99.90;;;;;;6098878;23;19917;-72
2022/05/19 01:34:53;;;;;;;;;;;15.90;99.90;;;;;;6123140;23;19928;-76
2022/05/19 01:37:18;;;;;;;;;;;15.80;99.90;;;;;;6098743;23;20292;-74
2022/05/19 01:39:46;;;;;;;;;;;15.80;99.90;;;;;;6123069;23;20240;-73
2022/05/19 01:42:13;;;;;;;;;;;15.80;99.90;;;;;;6122561;23;19927;-75
2022/05/19 01:44:38;;;;;;;;;;;15.80;99.90;;;;;;6123126;23;19968;-75
2022/05/19 01:47:04;;;;;;;;;;;15.80;99.90;;;;;;6123175;23;19972;-75
2022/05/19 01:49:41;;;;;;;;;;;15.70;99.90;;;;;;6123303;23;19991;-74
2022/05/19 01:52:11;;;;;;;;;;;15.70;99.90;;;;;;6122891;23;19933;-75
2022/05/19 01:54:48;;;;;;;;;;;15.70;99.90;;;;;;6098600;23;19984;-74
2022/05/19 01:57:17;;;;;;;;;;;15.60;99.90;;;;;;6098269;23;19917;-75
2022/05/19 02:00:12;;;;;;;;;;;15.60;99.90;;;;;;6123042;23;20296;-74
2022/05/19 02:02:44;;;;;;;;;;;15.60;99.90;;;;;;6155630;23;20386;-75
2022/05/19 02:05:24;;;;;;;;;;;15.60;99.90;;;;;;6182383;23;20250;-74
2022/05/19 02:07:51;;;;;;;;;;;15.50;99.90;;;;;;6182220;23;19920;-74
2022/05/19 02:10:27;;;;;;;;;;;15.50;99.90;;;;;;6157966;23;19923;-75
2022/05/19 02:12:54;;;;;;;;;;;15.50;99.90;;;;;;6182515;23;19983;-75
2022/05/19 02:15:22;;;;;;;;;;;15.50;99.90;;;;;;6157150;23;19927;-75
2022/05/19 02:17:49;;;;;;;;;;;15.50;99.90;;;;;;6156495;23;19920;-75
2022/05/19 02:20:15;;;;;;;;;;;15.50;99.90;;;;;;6157334;23;20015;-75
2022/05/19 02:22:45;;;;;;;;;;;15.50;99.90;;;;;;6182355;23;19927;-75
2022/05/19 02:25:10;;;;;;;;;;;15.40;99.90;;;;;;6157340;23;19927;-75
2022/05/19 02:27:40;;;;;;;;;;;15.40;99.90;;;;;;6157312;23;19920;-74
2022/05/19 02:30:07;;;;;;;;;;;15.40;99.90;;;;;;6183003;23;19999;-75
2022/05/19 02:32:35;;;;;;;;;;;15.40;99.90;;;;;;6184012;23;19920;-74
2022/05/19 02:35:01;;;;;;;;;;;15.40;99.90;;;;;;6159030;23;20300;-75
2022/05/19 02:37:27;;;;;;;;;;;15.40;99.90;;;;;;6184067;23;19995;-73
2022/05/19 02:39:53;;;;;;;;;;;15.40;99.90;;;;;;6238087;22;19985;-74
2022/05/19 02:42:18;;;;;;;;;;;15.40;99.90;;;;;;6277837;22;20247;-74
2022/05/19 02:44:44;;;;;;;;;;;15.30;99.90;;;;;;6277304;22;19927;-75
2022/05/19 02:47:10;;;;;;;;;;;15.30;99.90;;;;;;6277705;22;20293;-75
2022/05/19 02:49:35;;;;;;;;;;;15.30;99.90;;;;;;6277378;22;20382;-74
2022/05/19 02:52:01;;;;;;;;;;;15.40;99.90;;;;;;6250341;22;19920;-75
2022/05/19 02:54:26;;;;;;;;;;;15.50;99.90;;;;;;6250339;22;20244;-75
2022/05/19 02:56:52;;;;;;;;;;;15.30;99.90;;;;;;6250267;22;19985;-74
2022/05/19 02:59:17;;;;;;;;;;;15.30;99.90;;;;;;6250240;22;19927;-73
2022/05/19 03:01:43;;;;;;;;;;;15.30;99.90;;;;;;6275491;22;19965;-74
2022/05/19 03:04:08;;;;;;;;;;;15.30;99.90;;;;;;6277051;22;19915;-74
2022/05/19 03:06:34;;;;;;;;;;;15.40;99.90;;;;;;6250211;22;19923;-74
2022/05/19 03:08:59;;;;;;;;;;;15.20;99.90;;;;;;6277777;22;20355;-75
2022/05/19 03:11:25;;;;;;;;;;;15.30;99.90;;;;;;6277534;22;19919;-74
2022/05/19 03:13:50;;;;;;;;;;;15.30;99.90;;;;;;6277730;22;20332;-75
2022/05/19 03:16:16;;;;;;;;;;;15.20;99.90;;;;;;6276689;22;19919;-74
2022/05/19 03:18:41;;;;;;;;;;;15.20;99.90;;;;;;6277316;22;19982;-74
2022/05/19 03:21:07;;;;;;;;;;;15.20;99.90;;;;;;6279193;22;19919;-78
2022/05/19 03:23:33;;;;;;;;;;;15.20;99.90;;;;;;6277963;22;20287;-75
2022/05/19 03:25:58;;;;;;;;;;;15.20;99.90;;;;;;6277467;22;19994;-76
2022/05/19 03:28:24;;;;;;;;;;;15.20;99.90;;;;;;6277015;22;19930;-76
2022/05/19 03:30:49;;;;;;;;;;;15.10;99.90;;;;;;6276797;22;19919;-75
2022/05/19 03:33:15;;;;;;;;;;;15.20;99.90;;;;;;6276463;22;19920;-76
2022/05/19 03:35:42;;;;;;;;;;;15.20;99.90;;;;;;6249964;22;19976;-75
2022/05/19 03:38:07;;;;;;;;;;;15.20;99.90;;;;;;6277257;22;19953;-77
2022/05/19 03:40:33;;;;;;;;;;;15.20;99.90;;;;;;6277440;22;19923;-76
2022/05/19 03:42:59;;;;;;;;;;;15.20;99.90;;;;;;6249988;22;20249;-74
2022/05/19 03:45:25;;;;;;;;;;;15.30;99.90;;;;;;6249521;22;19998;-73
2022/05/19 03:47:50;;;;;;;;;;;15.30;99.90;;;;;;6249518;22;19927;-75
2022/05/19 03:50:16;;;;;;;;;;;15.40;99.90;;;;;;6276890;22;19919;-76
2022/05/19 03:52:42;;;;;;;;;;;15.90;99.90;;;;;;6276732;22;20329;-75
2022/05/19 03:55:08;;;;;;;;;;;15.50;99.90;;;;;;6276681;22;19927;-75
2022/05/19 03:57:33;;;;;;;;;;;15.60;99.90;;;;;;6276866;22;19919;-76
2022/05/19 03:59:59;;;;;;;;;;;15.60;99.90;;;;;;6249598;22;20048;-75
2022/05/19 04:02:25;;;;;;;;;;;16.10;99.90;;;;;;6276921;22;19920;-75
2022/05/19 04:04:51;;;;;;;;;;;15.70;99.90;;;;;;6275915;22;19926;-75
2022/05/19 04:07:17;;;;;;;;;;;15.60;99.90;;;;;;6276419;22;20341;-74
2022/05/19 04:09:42;;;;;;;;;;;15.70;99.90;;;;;;6276789;22;19919;-74
2022/05/19 04:12:09;;;;;;;;;;;15.80;99.90;;;;;;6276879;22;19919;-75
2022/05/19 04:14:34;;;;;;;;;;;15.70;99.90;;;;;;6276727;22;19946;-75
2022/05/19 04:17:00;;;;;;;;;;;15.80;99.90;;;;;;6276471;22;20337;-74
2022/05/19 04:19:25;;;;;;;;;;;15.70;99.90;;;;;;6275937;22;19946;-73
2022/05/19 04:21:51;;;;;;;;;;;15.80;99.90;;;;;;6276603;22;19927;-74
2022/05/19 04:24:17;;;;;;;;;;;15.80;99.90;;;;;;6276871;22;20042;-75
2022/05/19 04:26:42;;;;;;;;;;;15.80;99.90;;;;;;6276392;22;19920;-75
2022/05/19 04:29:08;;;;;;;;;;;15.80;99.90;;;;;;6276667;22;20349;-77
2022/05/19 04:31:33;;;;;;;;;;;15.80;99.90;;;;;;6276825;22;20344;-75
2022/05/19 04:33:59;;;;;;;;;;;15.80;99.90;;;;;;6276750;22;19994;-75
2022/05/19 04:36:25;;;;;;;;;;;15.90;99.90;;;;;;6276208;22;19927;-74
2022/05/19 04:38:50;;;;;;;;;;;15.80;99.90;;;;;;6276449;22;19942;-76
2022/05/19 04:41:16;;;;;;;;;;;15.90;99.90;;;;;;6249006;22;20240;-77
2022/05/19 04:43:41;;;;;;;;;;;15.90;99.90;;;;;;6276294;22;19920;-76
2022/05/19 04:46:07;;;;;;;;;;;15.90;99.90;;;;;;6249241;22;19920;-75
2022/05/19 04:48:32;;;;;;;;;;;16.00;99.90;;;;;;6276669;22;19919;-75
2022/05/19 04:50:58;;;;;;;;;;;16.00;99.90;;;;;;6247644;22;19994;-75
2022/05/19 04:53:25;;;;;;;;;;;16.00;99.90;;;;;;6248482;22;19997;-75
2022/05/19 04:55:52;;;;;;;;;;;16.00;99.90;;;;;;6276280;22;19919;-76
2022/05/19 04:58:17;;;;;;;;;;;16.20;99.90;;;;;;6248895;22;20307;-75
2022/05/19 05:00:44;;;;;;;;;;;16.10;99.90;;;;;;6249057;22;19959;-75
2022/05/19 05:03:10;;;;;;;;;;;16.20;99.90;;;;;;6248351;22;19919;-76
2022/05/19 05:05:35;;;;;;;;;;;16.30;99.90;;;;;;6276352;22;19930;-76
2022/05/19 05:08:01;;;;;;;;;;;16.30;99.90;;;;;;6275723;22;19919;-75
2022/05/19 05:10:26;;;;;;;;;;;16.50;99.90;;;;;;6248804;22;19990;-76
2022/05/19 05:12:52;;;;;;;;;;;16.40;99.90;;;;;;6276493;22;19923;-75
2022/05/19 05:15:17;;;;;;;;;;;16.60;99.90;;;;;;6276010;22;19919;-74
2022/05/19 05:17:43;;;;;;;;;;;16.70;99.90;;;;;;6276289;22;19926;-76
2022/05/19 05:20:12;;;;;;;;;;;16.80;99.90;;;;;;6248954;22;19920;-75
2022/05/19 05:22:38;;;;;;;;;;;16.90;99.90;;;;;;6275830;22;20279;-77
2022/05/19 05:25:05;;;;;;;;;;;16.90;99.90;;;;;;6275950;22;20020;-76
2022/05/19 05:27:30;;;;;;;;;;;16.90;99.90;;;;;;6276409;22;19919;-75
2022/05/19 05:29:56;;;;;;;;;;;17.00;99.90;;;;;;6248832;22;19919;-74
2022/05/19 05:32:21;;;;;;;;;;;17.00;99.90;;;;;;6248741;22;20337;-77
2022/05/19 05:34:47;;;;;;;;;;;17.00;99.90;;;;;;6276350;22;20326;-76
2022/05/19 05:37:12;;;;;;;;;;;17.20;99.90;;;;;;6276224;22;20333;-76
2022/05/19 05:39:38;;;;;;;;;;;17.20;99.90;;;;;;6273826;22;19942;-78
2022/05/19 05:42:05;;;;;;;;;;;17.30;99.90;;;;;;6248899;22;19945;-75
2022/05/19 05:44:35;;;;;;;;;;;17.40;99.90;;;;;;6275846;22;20369;-75
2022/05/19 05:47:01;;;;;;;;;;;17.40;99.90;;;;;;6274521;22;19990;-75
2022/05/19 05:49:26;;;;;;;;;;;17.50;99.90;;;;;;6276045;22;19954;-75
2022/05/19 05:51:52;;;;;;;;;;;17.60;99.90;;;;;;6276031;22;19923;-79
2022/05/19 05:54:17;;;;;;;;;;;17.70;99.90;;;;;;6275745;22;19926;-75
2022/05/19 05:56:43;;;;;;;;;;;17.80;99.90;;;;;;6275693;22;19919;-79
2022/05/19 05:59:08;;;;;;;;;;;17.90;99.90;;;;;;6275751;22;20375;-75
2022/05/19 06:01:34;;;;;;;;;;;17.90;99.90;;;;;;6276084;22;19994;-79
2022/05/19 06:04:01;;;;;;;;;;;17.90;99.90;;;;;;6277006;22;20005;-76
2022/05/19 06:06:27;;;;;;;;;;;17.90;99.90;;;;;;6277883;22;19965;-74
2022/05/19 06:08:52;;;;;;;;;;;18.00;99.90;;;;;;6277750;22;20300;-75
2022/05/19 06:11:18;;;;;;;;;;;18.10;99.90;;;;;;6277571;22;19919;-75
2022/05/19 06:13:44;;;;;;;;;;;18.20;99.90;;;;;;6278059;22;20389;-75
2022/05/19 06:16:10;;;;;;;;;;;18.20;99.90;;;;;;6250703;22;19959;-80
2022/05/19 06:18:35;;;;;;;;;;;18.30;99.90;;;;;;6277936;22;19919;-73
2022/05/19 06:21:01;;;;;;;;;;;18.40;99.90;;;;;;6277588;22;19923;-74
2022/05/19 06:23:27;;;;;;;;;;;18.50;99.90;;;;;;6246925;22;19942;-76
2022/05/19 06:25:52;;;;;;;;;;;18.50;99.90;;;;;;6276199;22;19919;-73
2022/05/19 06:28:19;;;;;;;;;;;18.60;99.90;;;;;;6248309;22;19925;-70
2022/05/19 06:30:51;;;;;;;;;;;18.60;99.90;;;;;;6275502;22;20337;-73
2022/05/19 06:33:22;;;;;;;;;;;18.70;99.90;;;;;;6248179;22;20045;-71
2022/05/19 06:35:49;;;;;;;;;;;18.80;99.90;;;;;;6275830;22;20325;-74
2022/05/19 06:38:16;;;;;;;;;;;18.80;99.90;;;;;;6274734;22;19963;-74
2022/05/19 06:40:41;;;;;;;;;;;18.80;99.90;;;;;;6275866;22;19946;-75
2022/05/19 06:43:08;;;;;;;;;;;18.10;99.90;;;;;;6275114;22;19965;-75
2022/05/19 06:45:34;;;;;;;;;;;18.90;99.90;;;;;;6275886;22;19926;-71
2022/05/19 06:47:59;;;;;;;;;;;19.00;99.90;;;;;;6275713;22;19919;-74
2022/05/19 06:50:25;;;;;;;;;;;19.10;99.90;;;;;;6275070;22;19919;-74
2022/05/19 06:52:52;;;;;;;;;;;19.10;99.90;;;;;;6248464;22;20021;-74
2022/05/19 06:55:19;;;;;;;;;;;19.20;99.90;;;;;;6274770;22;20315;-73
2022/05/19 06:57:44;;;;;;;;;;;19.40;99.90;;;;;;6275325;22;19923;-75
2022/05/19 07:00:12;;;;;;;;;;;19.50;99.90;;;;;;6274859;22;19926;-71
2022/05/19 07:02:41;;;;;;;;;;;19.70;99.90;;;;;;6275770;22;19919;-76
2022/05/19 07:05:06;;;;;;;;;;;19.80;99.90;;;;;;6275434;22;19920;-73
2022/05/19 07:07:32;;;;;;;;;;;20.00;99.90;;;;;;6275556;22;20499;-75
2022/05/19 07:09:57;;;;;;;;;;;20.10;99.90;;;;;;6248343;22;19954;-73
2022/05/19 07:12:25;;;;;;;;;;;20.30;99.90;;;;;;6275219;22;19923;-74
2022/05/19 07:14:51;;;;;;;;;;;20.50;99.90;;;;;;6274748;22;20253;-75
2022/05/19 07:17:17;;;;;;;;;;;20.60;99.90;;;;;;6274502;22;20365;-71
2022/05/19 07:22:29;;;;;;;;;;;20.90;99.90;;;;;;6274632;22;19919;-74
2022/05/19 07:24:54;;;;;;;;;;;21.00;99.90;;;;;;6275343;22;19927;-74
2022/05/19 07:27:20;;;;;;;;;;;21.10;99.90;;;;;;6275011;22;20333;-71
2022/05/19 07:29:46;;;;;;;;;;;21.10;99.90;;;;;;6274581;22;19919;-74
2022/05/19 07:32:12;;;;;;;;;;;21.20;99.90;;;;;;6274927;22;19919;-72
2022/05/19 07:34:39;;;;;;;;;;;21.30;99.90;;;;;;6275185;22;19919;-76
2022/05/19 07:37:05;;;;;;;;;;;21.40;99.90;;;;;;6275777;22;19958;-75
2022/05/19 07:39:30;;;;;;;;;;;21.60;99.90;;;;;;6274340;22;19919;-74
2022/05/19 07:41:56;;;;;;;;;;;21.80;99.90;;;;;;6275207;22;20337;-74
2022/05/19 07:44:23;;;;;;;;;;;21.80;99.90;;;;;;6274119;22;19920;-74
2022/05/19 07:46:49;;;;;;;;;;;21.90;99.90;;;;;;6274920;22;19927;-76
2022/05/19 07:49:14;;;;;;;;;;;22.10;99.90;;;;;;6274501;22;19923;-76
2022/05/19 07:51:41;;;;;;;;;;;22.10;99.90;;;;;;6274902;22;19927;-75
2022/05/19 07:54:09;;;;;;;;;;;22.00;99.90;;;;;;6274607;22;19964;-75
2022/05/19 07:56:34;;;;;;;;;;;22.10;99.90;;;;;;6274902;22;19919;-74
2022/05/19 07:59:00;;;;;;;;;;;22.10;99.90;;;;;;6274941;22;20254;-72
2022/05/19 08:01:26;;;;;;;;;;;22.10;99.90;;;;;;6273542;22;19919;-71
2022/05/19 08:03:52;;;;;;;;;;;22.10;99.90;;;;;;6275118;22;19920;-74
2022/05/19 08:06:17;;;;;;;;;;;22.10;99.90;;;;;;6274117;22;20241;-72
2022/05/19 08:08:43;;;;;;;;;;;22.10;99.90;;;;;;6247854;22;19945;-74
2022/05/19 08:11:09;;;;;;;;;;;22.10;99.90;;;;;;6274143;22;19995;-73
2022/05/19 08:16:22;;;;;;;;;;;22.00;99.90;;;;;;6272647;22;19972;-73
2022/05/19 08:18:48;;;;;;;;;;;21.80;99.90;;;;;;6247895;22;20356;-76
2022/05/19 08:21:16;;;;;;;;;;;21.70;99.90;;;;;;6274641;22;19916;-78
2022/05/19 08:23:50;;;;;;;;;;;21.70;99.90;;;;;;6274679;22;19923;-78
2022/05/19 08:26:27;;;;;;;;;;;21.30;99.90;;;;;;6222315;22;19934;-77
2022/05/19 08:29:44;;;;;;;;;;;21.20;99.90;;;;;;6225124;22;19919;-75
2022/05/19 08:32:16;;;;;;;;;;;21.10;99.90;;;;;;6245616;22;20288;-76
2022/05/19 08:34:42;;;;;;;;;;;20.90;99.90;;;;;;6274319;22;19992;-72
2022/05/19 08:37:07;;;;;;;;;;;20.60;99.90;;;;;;6247304;22;19919;-77
2022/05/19 08:39:33;;;;;;;;;;;20.40;99.90;;;;;;6273597;22;19930;-74
2022/05/19 08:42:00;;;;;;;;;;;20.20;99.90;;;;;;6274136;22;19927;-75
2022/05/19 08:44:31;;;;;;;;;;;20.10;99.90;;;;;;6273796;22;20390;-74
2022/05/19 08:46:58;;;;;;;;;;;20.00;99.90;;;;;;6274546;22;19981;-77
2022/05/19 08:49:30;;;;;;;;;;;19.90;99.90;;;;;;6273259;22;19919;-76
2022/05/19 08:52:03;;;;;;;;;;;19.90;99.90;;;;;;6274370;22;19919;-76
2022/05/19 08:54:29;;;;;;;;;;;19.80;99.90;;;;;;6246819;22;19919;-75
2022/05/19 08:56:58;;;;;;;;;;;19.80;99.90;;;;;;6274464;22;20293;-76
2022/05/19 08:59:26;;;;;;;;;;;19.70;99.90;;;;;;6274111;22;19919;-77
2022/05/19 09:02:03;;;;;;;;;;;19.60;99.90;;;;;;6273973;22;19926;-78
2022/05/19 09:04:44;;;;;;;;;;;19.60;99.90;;;;;;6273510;22;19927;-71
2022/05/19 09:10:09;;;;;;;;;;;19.70;99.90;;;;;;6272521;22;19920;-76
2022/05/19 09:12:36;;;;;;;;;;;19.80;99.90;;;;;;6246505;22;19923;-75
2022/05/19 09:15:04;;;;;;;;;;;19.80;99.90;;;;;;6274530;22;19919;-79
2022/05/19 09:17:31;;;;;;;;;;;19.90;99.90;;;;;;6273788;22;19926;-76
2022/05/19 09:20:00;;;;;;;;;;;20.00;99.90;;;;;;6273967;22;19923;-69
2022/05/19 09:22:26;;;;;;;;;;;20.10;99.90;;;;;;6273144;22;20277;-76
2022/05/19 09:24:53;;;;;;;;;;;20.20;99.90;;;;;;6274324;22;19923;-77
2022/05/19 09:27:19;;;;;;;;;;;20.20;99.90;;;;;;6273955;22;19919;-77
2022/05/19 09:29:53;;;;;;;;;;;20.20;99.90;;;;;;6247159;22;19969;-73
2022/05/19 09:32:30;;;;;;;;;;;20.20;99.90;;;;;;6246833;22;19965;-75
2022/05/19 09:35:05;;;;;;;;;;;20.30;99.90;;;;;;6246406;22;20253;-77
2022/05/19 09:37:40;;;;;;;;;;;20.40;99.90;;;;;;6274484;22;19930;-77
2022/05/19 09:40:11;;;;;;;;;;;20.60;99.90;;;;;;6275998;22;19915;-71
2022/05/19 09:43:03;;;;;;;;;;;20.70;99.90;;;;;;6276279;22;20016;-73
2022/05/19 09:45:29;;;;;;;;;;;20.80;99.90;;;;;;6275443;22;19919;-80
2022/05/19 09:48:01;;;;;;;;;;;20.80;99.90;;;;;;6276166;22;20360;-77
2022/05/19 09:50:29;;;;;;;;;;;20.90;99.90;;;;;;6248412;22;19923;-81
2022/05/19 09:53:02;;;;;;;;;;;20.90;99.90;;;;;;6223199;22;19923;-79
2022/05/19 09:55:41;;;;;;;;;;;20.90;99.90;;;;;;6249212;22;20416;-75
2022/05/19 09:58:14;;;;;;;;;;;21.10;99.90;;;;;;6221704;22;19912;-84
2022/05/19 10:00:50;;;;;;;;;;;21.00;99.90;;;;;;6223880;22;19926;-74
2022/05/19 10:03:29;;;;;;;;;;;21.10;99.90;;;;;;6248817;22;19986;-75
2022/05/19 10:06:02;;;;;;;;;;;21.00;99.90;;;;;;6248726;22;19920;-84
2022/05/19 10:08:39;;;;;;;;;;;21.00;99.90;;;;;;6223594;22;20440;-75
2022/05/19 10:11:06;;;;;;;;;;;21.10;99.90;;;;;;6248909;22;20462;-83
2022/05/19 10:13:44;;;;;;;;;;;21.20;99.90;;;;;;6187705;23;19920;-77
2022/05/19 10:16:10;;;;;;;;;;;21.30;99.90;;;;;;6163066;23;19978;-74
2022/05/19 10:19:14;;;;;;;;;;;21.50;99.90;;;;;;6162914;23;20364;-77
2022/05/19 10:21:42;;;;;;;;;;;21.70;99.90;;;;;;6098159;23;19936;-80
2022/05/19 10:24:34;;;;;;;;;;;21.90;99.90;;;;;;6096595;23;19932;-76
2022/05/19 10:32:58;;;;;;;;;;;22.10;99.90;;;;;;6122084;23;19920;-78
2022/05/19 10:35:44;;;;;;;;;;;21.90;99.90;;;;;;6122136;23;19980;-78
2022/05/19 10:38:36;;;;;;;;;;;21.90;99.90;;;;;;6122329;23;19927;-93
2022/05/19 10:41:18;;;;;;;;;;;21.90;99.90;;;;;;6119243;23;19956;-79
2022/05/19 10:44:05;;;;;;;;;;;21.80;99.90;;;;;;6098341;23;19921;-75
2022/05/19 10:46:52;;;;;;;;;;;21.90;99.90;;;;;;6121303;23;19975;-76
2022/05/19 10:49:42;;;;;;;;;;;21.80;99.90;;;;;;6097048;23;19921;-76
2022/05/19 10:52:26;;;;;;;;;;;22.00;99.90;;;;;;6155612;23;19924;-76
2022/05/19 10:55:10;;;;;;;;;;;22.00;99.90;;;;;;6214082;23;19923;-76
2022/05/19 10:58:06;;;;;;;;;;;22.10;99.90;;;;;;6163472;23;20246;-76
2022/05/19 11:00:54;;;;;;;;;;;22.20;99.90;;;;;;6163214;23;20272;-77
2022/05/19 11:03:43;;;;;;;;;;;22.30;99.90;;;;;;6213958;23;20402;-76
2022/05/19 11:06:27;;;;;;;;;;;22.30;99.90;;;;;;6213938;23;19956;-73
2022/05/19 11:09:13;;;;;;;;;;;22.60;99.90;;;;;;6163091;23;19924;-72
2022/05/19 11:11:45;;;;;;;;;;;22.80;99.90;;;;;;6213766;23;19920;-77
2022/05/19 11:14:10;;;;;;;;;;;23.00;99.90;;;;;;6213971;23;19927;-74
2022/05/19 11:16:39;;;;;;;;;;;23.20;99.90;;;;;;6214472;23;19920;-71
2022/05/19 11:19:23;;;;;;;;;;;23.40;99.90;;;;;;6214287;23;19940;-71
2022/05/19 11:22:12;;;;;;;;;;;23.50;99.90;;;;;;6214772;23;20258;-77
2022/05/19 11:26:23;;;;;;;;;;;23.60;99.90;;;;;;6121728;23;20556;-71
2022/05/19 11:27:30;;;;;;;;;;;24.00;99.90;;;;;;6097077;23;19928;-70
2022/05/19 11:30:00;;;;;;;;;;;24.40;99.90;;;;;;6121727;23;19932;-70
2022/05/19 11:32:29;;;;;;;;;;;24.70;99.90;;;;;;6122060;23;20012;-71
2022/05/19 11:34:57;;;;;;;;;;;24.70;99.90;;;;;;6121095;23;19921;-70
2022/05/19 11:37:35;;;;;;;;;;;24.90;99.90;;;;;;6122013;23;19933;-71
2022/05/19 11:40:15;;;;;;;;;;;25.10;99.90;;;;;;6121486;23;19925;-75
2022/05/19 11:43:06;;;;;;;;;;;25.20;99.90;;;;;;6073345;23;20543;-78
2022/05/19 11:45:32;;;;;;;;;;;25.50;99.90;;;;;;6120633;23;20336;-79
2022/05/19 11:57:34;;;;;;;;;;;26.60;99.90;;;;;;5977318;24;20456;-72
2022/05/19 12:00:01;;;;;;;;;;;26.90;99.90;;;;;;5978740;24;20745;-73
2022/05/19 12:02:36;;;;;;;;;;;27.00;99.90;;;;;;5974928;23;19922;-73
2022/05/19 12:05:11;;;;;;;;;;;27.30;99.90;;;;;;5984498;23;20004;-69
2022/05/19 12:07:42;;;;;;;;;;;27.40;99.90;;;;;;5984484;23;19933;-77
2022/05/19 12:10:11;;;;;;;;;;;27.50;99.90;;;;;;6031893;23;19918;-73
2022/05/19 12:12:47;;;;;;;;;;;27.50;99.90;;;;;;6030947;23;19961;-71
2022/05/19 12:15:22;;;;;;;;;;;27.50;99.90;;;;;;5985360;23;20317;-72
2022/05/19 12:18:10;;;;;;;;;;;;;;;;;;;;;
2022/05/19 12:20:39;;;;;;;;;;;27.30;99.90;;;;;;6031459;23;19926;-74
2022/05/19 12:23:28;;;;;;;;;;;27.10;99.90;;;;;;6008375;23;19979;-71
2022/05/19 12:26:02;;;;;;;;;;;26.90;99.90;;;;;;5994288;23;19926;-72
2022/05/19 12:28:48;;;;;;;;;;;26.80;99.60;;;;;;6067575;23;20357;-72
2022/05/19 12:44:57;;;;;;;;;;;26.60;99.90;;;;;;6197430;22;19943;-71
2022/05/19 12:47:32;;;;;;;;;;;26.60;99.20;;;;;;6188085;23;19920;-68
2022/05/19 12:50:01;;;;;;;;;;;26.40;99.90;;;;;;6190084;23;20330;-73
2022/05/19 12:52:48;;;;;;;;;;;26.20;99.90;;;;;;6188126;23;19942;-72
2022/05/19 12:55:26;;;;;;;;;;;26.10;99.90;;;;;;6190496;23;19954;-76
2022/05/19 12:57:56;;;;;;;;;;;25.90;99.90;;;;;;6212381;23;20219;-70
2022/05/19 13:00:36;;;;;;;;;;;25.70;99.90;;;;;;6190166;23;20397;-84
2022/05/19 13:03:16;;;;;;;;;;;25.60;99.90;;;;;;6213888;23;19919;-70
2022/05/19 13:06:02;;;;;;;;;;;25.40;99.80;;;;;;6187996;23;19930;-85
2022/05/19 13:08:35;;;;;;;;;;;25.30;99.90;;;;;;6213595;23;19920;-75
2022/05/19 13:11:04;;;;;;;;;;;25.20;99.90;;;;;;6190111;23;20396;-72
2022/05/19 13:13:40;;;;;;;;;;;25.10;99.90;;;;;;6187554;23;19920;-75
2022/05/19 13:16:13;;;;;;;;;;;25.00;99.90;;;;;;6237878;23;20326;-73
2022/05/19 13:18:58;;;;;;;;;;;25.00;99.90;;;;;;6215247;23;19926;-83
2022/05/19 13:21:39;;;;;;;;;;;24.90;99.90;;;;;;6189270;23;19939;-77
2022/05/19 13:24:09;;;;;;;;;;;24.70;99.90;;;;;;6188559;23;20346;-76
2022/05/19 13:26:38;;;;;;;;;;;24.50;99.90;;;;;;6211280;23;19930;-77
2022/05/19 13:32:01;;;;;;;;;;;24.20;99.90;;;;;;6214274;23;19924;-74
2022/05/19 13:34:38;;;;;;;;;;;24.00;99.90;;;;;;6188701;23;19926;-79
2022/05/19 13:37:06;;;;;;;;;;;23.80;99.90;;;;;;6188099;23;20221;-75
2022/05/19 13:39:31;;;;;;;;;;;23.50;99.90;;;;;;6189567;23;20013;-71
2022/05/19 13:41:59;;;;;;;;;;;23.00;99.90;;;;;;6189210;23;20578;-71
2022/05/19 13:44:35;;;;;;;;;;;22.50;99.90;;;;;;6187893;23;19930;-72
2022/05/19 13:47:03;;;;;;;;;;;22.00;99.90;;;;;;6211280;23;19919;-70
2022/05/19 13:49:29;;;;;;;;;;;21.50;99.90;;;;;;6214186;23;19946;-71
2022/05/19 13:51:57;;;;;;;;;;;21.20;99.90;;;;;;6215407;23;20003;-72
2022/05/19 13:54:31;;;;;;;;;;;21.00;99.90;;;;;;6213506;23;19927;-76
2022/05/19 13:57:06;;;;;;;;;;;20.60;99.90;;;;;;6187557;23;19930;-71
2022/05/19 13:59:34;;;;;;;;;;;20.20;99.90;;;;;;6213009;23;19967;-74
2022/05/19 14:02:06;;;;;;;;;;;19.80;99.90;;;;;;6214675;23;19929;-73
2022/05/19 14:04:33;;;;;;;;;;;19.50;99.90;;;;;;6187953;23;19939;-71
2022/05/19 14:06:58;;;;;;;;;;;19.20;99.90;;;;;;6211204;23;19920;-72
2022/05/19 14:09:43;;;;;;;;;;;18.90;99.90;;;;;;6214520;23;19926;-73
2022/05/19 14:12:20;;;;;;;;;;;18.60;99.90;;;;;;6214226;23;19931;-75
2022/05/19 14:14:47;;;;;;;;;;;18.50;99.90;;;;;;6187907;23;19995;-74
2022/05/19 14:17:13;;;;;;;;;;;18.30;99.90;;;;;;6212194;23;19962;-72
2022/05/19 14:19:39;;;;;;;;;;;18.30;99.90;;;;;;6213813;23;19920;-74
2022/05/19 14:22:10;;;;;;;;;;;18.40;99.90;;;;;;6214391;23;19944;-76
2022/05/19 14:24:35;;;;;;;;;;;18.20;99.90;;;;;;6188908;23;20445;-75
2022/05/19 14:27:01;;;;;;;;;;;18.20;99.90;;;;;;6213524;23;19926;-73
2022/05/19 14:29:37;;;;;;;;;;;18.10;99.90;;;;;;6242749;23;20128;-72
2022/05/19 14:32:20;;;;;;;;;;;18.00;99.90;;;;;;6191210;23;20259;-78
2022/05/19 14:37:53;;;;;;;;;;;17.90;99.90;;;;;;6214023;23;19919;-74
2022/05/19 14:43:26;;;;;;;;;;;17.80;99.90;;;;;;6214745;23;19981;-74
2022/05/19 14:45:53;;;;;;;;;;;17.80;99.90;;;;;;6240923;23;19981;-74
2022/05/19 14:48:31;;;;;;;;;;;17.80;99.90;;;;;;6241874;23;20017;-79
2022/05/19 14:51:01;;;;;;;;;;;17.70;99.90;;;;;;6191499;23;19994;-76
2022/05/19 14:53:29;;;;;;;;;;;17.70;99.90;;;;;;6242653;23;19924;-76
2022/05/19 14:56:01;;;;;;;;;;;17.70;99.90;;;;;;6186483;23;19928;-75
2022/05/19 14:58:47;;;;;;;;;;;17.60;99.90;;;;;;6241273;23;20304;-75
2022/05/19 15:01:18;;;;;;;;;;;17.60;99.90;;;;;;6240262;23;19934;-76
2022/05/19 15:03:44;;;;;;;;;;;17.60;99.90;;;;;;6191816;23;19943;-77
2022/05/19 15:06:12;;;;;;;;;;;17.60;99.90;;;;;;6243631;23;20322;-79
2022/05/19 15:08:40;;;;;;;;;;;17.60;99.90;;;;;;6217427;23;20206;-77
2022/05/19 15:11:22;;;;;;;;;;;17.70;99.90;;;;;;6244432;23;20345;-80
2022/05/19 15:13:59;;;;;;;;;;;17.70;99.90;;;;;;6191102;23;19919;-78
2022/05/19 15:16:28;;;;;;;;;;;18.20;99.90;;;;;;6217485;23;19919;-77
2022/05/19 15:19:00;;;;;;;;;;;17.70;99.90;;;;;;6215794;23;19965;-77
2022/05/19 15:21:29;;;;;;;;;;;17.80;99.90;;;;;;6191278;23;19920;-75